createdAt,value
2023-01-13T00:00:25.352Z,10.17
2023-01-13T00:01:25.259Z,10.15
2023-01-13T00:02:25.320Z,10.15
2023-01-13T00:03:25.251Z,10.15
2023-01-13T00:04:25.614Z,10.18
2023-01-13T00:05:25.315Z,10.18
2023-01-13T00:06:25.254Z,10.18
2023-01-13T00:07:25.224Z,10.18
2023-01-13T00:08:25.300Z,10.18
2023-01-13T00:09:25.194Z,10.19
2023-01-13T00:10:25.199Z,10.21
2023-01-13T00:11:25.520Z,10.21
2023-01-13T00:12:25.216Z,10.24
2023-01-13T00:13:25.145Z,10.25
2023-01-13T00:14:25.122Z,10.26
2023-01-13T00:15:25.121Z,10.26
2023-01-13T00:16:25.169Z,10.28
2023-01-13T00:17:25.189Z,10.32
2023-01-13T00:18:25.468Z,10.34
2023-01-13T00:19:25.072Z,10.34
2023-01-13T00:20:25.070Z,10.34
2023-01-13T00:21:25.073Z,10.36
2023-01-13T00:22:25.059Z,10.37
2023-01-13T00:23:25.026Z,10.36
2023-01-13T00:24:25.067Z,10.39
2023-01-13T00:25:25.285Z,10.34
2023-01-13T00:26:25.030Z,10.36
2023-01-13T00:27:25.020Z,10.36
2023-01-13T00:28:24.977Z,10.42
2023-01-13T00:29:25.023Z,10.46
2023-01-13T00:30:25.013Z,10.44
2023-01-13T00:31:25.067Z,10.43
2023-01-13T00:32:25.227Z,10.42
2023-01-13T00:33:24.922Z,10.42
2023-01-13T00:34:24.914Z,10.42
2023-01-13T00:35:24.931Z,10.39
2023-01-13T00:36:24.936Z,10.37
2023-01-13T00:37:24.880Z,10.37
2023-01-13T00:38:24.928Z,10.36
2023-01-13T00:39:24.895Z,10.34
2023-01-13T00:40:24.830Z,10.34
2023-01-13T00:41:24.841Z,10.32
2023-01-13T00:42:24.864Z,10.30
2023-01-13T00:43:24.818Z,10.32
2023-01-13T00:44:25.098Z,10.33
2023-01-13T00:45:24.813Z,10.33
2023-01-13T00:46:24.833Z,10.34
2023-01-13T00:47:24.774Z,10.34
2023-01-13T00:48:24.827Z,10.36
2023-01-13T00:49:24.769Z,10.34
2023-01-13T00:50:24.743Z,10.34
2023-01-13T00:51:24.747Z,10.34
2023-01-13T00:52:24.742Z,10.34
2023-01-13T00:53:24.702Z,10.34
2023-01-13T00:54:24.756Z,10.33
2023-01-13T00:55:24.744Z,10.30
2023-01-13T00:56:39.280Z,10.30
2023-01-13T00:57:24.677Z,10.30
2023-01-13T00:58:24.698Z,10.32
2023-01-13T00:59:24.668Z,10.28
2023-01-13T01:00:24.691Z,10.28
2023-01-13T01:01:24.746Z,10.26
2023-01-13T01:02:24.632Z,10.25
2023-01-13T01:03:24.912Z,10.19
2023-01-13T01:04:24.601Z,10.17
2023-01-13T01:05:24.581Z,10.18
2023-01-13T01:06:24.651Z,10.19
2023-01-13T01:07:24.560Z,10.18
2023-01-13T01:08:24.556Z,10.15
2023-01-13T01:09:24.545Z,10.12
2023-01-13T01:10:24.817Z,10.10
2023-01-13T01:11:24.539Z,10.09
2023-01-13T01:12:24.548Z,10.06
2023-01-13T01:13:24.544Z,10.04
2023-01-13T01:14:24.502Z,10.04
2023-01-13T01:15:24.496Z,10.04
2023-01-13T01:16:24.536Z,10.04
2023-01-13T01:17:24.813Z,10.04
2023-01-13T01:18:24.486Z,10.04
2023-01-13T01:19:24.467Z,10.04
2023-01-13T01:20:24.415Z,10.04
2023-01-13T01:21:24.428Z,10.03
2023-01-13T01:22:24.436Z,10.03
2023-01-13T01:23:24.404Z,10.00
2023-01-13T01:24:24.741Z,9.97
2023-01-13T01:25:24.373Z,9.96
2023-01-13T01:26:24.375Z,9.94
2023-01-13T01:27:24.336Z,9.93
2023-01-13T01:28:24.355Z,9.91
2023-01-13T01:29:24.372Z,9.91
2023-01-13T01:30:24.379Z,9.93
2023-01-13T01:31:24.681Z,9.93
2023-01-13T01:32:24.290Z,9.91
2023-01-13T01:33:24.283Z,9.88
2023-01-13T01:34:24.272Z,9.86
2023-01-13T01:35:24.265Z,9.86
2023-01-13T01:36:24.332Z,9.86
2023-01-13T01:37:24.259Z,9.83
2023-01-13T01:38:24.525Z,9.82
2023-01-13T01:39:24.232Z,9.83
2023-01-13T01:40:24.352Z,9.86
2023-01-13T01:41:24.196Z,9.83
2023-01-13T01:42:24.241Z,9.85
2023-01-13T01:43:24.215Z,9.83
2023-01-13T01:44:24.175Z,9.81
2023-01-13T01:45:24.476Z,9.79
2023-01-13T01:46:24.236Z,9.81
2023-01-13T01:47:24.191Z,9.78
2023-01-13T01:48:24.176Z,9.78
2023-01-13T01:49:24.118Z,9.76
2023-01-13T01:50:24.109Z,9.76
2023-01-13T01:51:24.099Z,9.73
2023-01-13T01:52:24.367Z,9.71
2023-01-13T01:53:24.069Z,9.70
2023-01-13T01:54:24.112Z,9.67
2023-01-13T01:55:24.044Z,9.67
2023-01-13T01:56:24.046Z,9.67
2023-01-13T01:57:24.073Z,9.63
2023-01-13T01:58:24.013Z,9.63
2023-01-13T01:59:24.295Z,9.61
2023-01-13T02:00:24.033Z,9.61
2023-01-13T02:01:24.095Z,9.58
2023-01-13T02:02:24.032Z,9.58
2023-01-13T02:03:23.964Z,9.60
2023-01-13T02:04:23.952Z,9.60
2023-01-13T02:05:23.946Z,9.58
2023-01-13T02:06:24.286Z,9.56
2023-01-13T02:07:23.925Z,9.53
2023-01-13T02:08:23.906Z,9.53
2023-01-13T02:09:23.905Z,9.52
2023-01-13T02:10:23.903Z,9.50
2023-01-13T02:11:23.879Z,9.49
2023-01-13T02:12:23.929Z,9.49
2023-01-13T02:13:24.139Z,9.48
2023-01-13T02:14:23.842Z,9.48
2023-01-13T02:15:23.882Z,9.50
2023-01-13T02:16:23.840Z,9.50
2023-01-13T02:17:23.823Z,9.49
2023-01-13T02:18:23.833Z,9.49
2023-01-13T02:19:23.799Z,9.53
2023-01-13T02:20:25.065Z,9.53
2023-01-13T02:21:23.807Z,9.52
2023-01-13T02:22:23.790Z,9.50
2023-01-13T02:23:23.765Z,9.48
2023-01-13T02:24:23.908Z,9.45
2023-01-13T02:25:23.728Z,9.45
2023-01-13T02:26:23.734Z,9.45
2023-01-13T02:27:24.013Z,9.45
2023-01-13T02:28:23.719Z,9.46
2023-01-13T02:29:23.715Z,9.46
2023-01-13T02:30:23.752Z,9.45
2023-01-13T02:31:23.779Z,9.42
2023-01-13T02:32:23.673Z,9.39
2023-01-13T02:33:23.680Z,9.32
2023-01-13T02:34:23.948Z,9.30
2023-01-13T02:35:23.634Z,9.28
2023-01-13T02:36:23.671Z,9.24
2023-01-13T02:37:23.619Z,9.23
2023-01-13T02:38:23.603Z,9.21
2023-01-13T02:39:23.644Z,9.23
2023-01-13T02:40:23.570Z,9.23
2023-01-13T02:41:23.899Z,9.24
2023-01-13T02:42:23.583Z,9.23
2023-01-13T02:43:23.589Z,9.24
2023-01-13T02:44:23.534Z,9.21
2023-01-13T02:45:23.697Z,9.20
2023-01-13T02:46:23.519Z,9.20
2023-01-13T02:47:23.502Z,9.23
2023-01-13T02:48:23.805Z,9.20
2023-01-13T02:49:23.479Z,9.18
2023-01-13T02:50:23.490Z,9.20
2023-01-13T02:51:23.453Z,9.21
2023-01-13T02:52:23.451Z,9.18
2023-01-13T02:53:23.434Z,9.13
2023-01-13T02:54:23.464Z,9.13
2023-01-13T02:55:23.699Z,9.12
2023-01-13T02:56:23.417Z,9.12
2023-01-13T02:57:23.415Z,9.10
2023-01-13T02:58:23.375Z,9.10
2023-01-13T02:59:23.358Z,9.12
2023-01-13T03:00:23.399Z,9.12
2023-01-13T03:01:23.589Z,9.12
2023-01-13T03:02:23.763Z,9.10
2023-01-13T03:03:23.344Z,9.09
2023-01-13T03:04:23.311Z,9.09
2023-01-13T03:05:23.312Z,9.10
2023-01-13T03:06:23.329Z,9.13
2023-01-13T03:07:23.312Z,9.13
2023-01-13T03:08:23.334Z,9.13
2023-01-13T03:09:23.571Z,9.15
2023-01-13T03:10:23.253Z,9.12
2023-01-13T03:11:23.266Z,9.12
2023-01-13T03:12:23.304Z,9.12
2023-01-13T03:13:23.249Z,9.10
2023-01-13T03:14:23.221Z,9.10
2023-01-13T03:15:23.202Z,9.09
2023-01-13T03:16:23.564Z,9.09
2023-01-13T03:17:23.174Z,9.06
2023-01-13T03:18:23.221Z,9.12
2023-01-13T03:19:23.183Z,9.12
2023-01-13T03:20:23.194Z,9.12
2023-01-13T03:21:23.172Z,9.12
2023-01-13T03:22:23.216Z,9.13
2023-01-13T03:23:23.405Z,9.12
2023-01-13T03:24:23.154Z,9.09
2023-01-13T03:25:23.136Z,9.05
2023-01-13T03:26:23.095Z,9.04
2023-01-13T03:27:23.076Z,9.05
2023-01-13T03:28:23.067Z,9.05
2023-01-13T03:29:23.050Z,9.05
2023-01-13T03:30:23.467Z,9.06
2023-01-13T03:31:23.063Z,9.06
2023-01-13T03:32:23.050Z,9.12
2023-01-13T03:33:23.041Z,9.13
2023-01-13T03:34:22.995Z,9.13
2023-01-13T03:35:23.009Z,9.10
2023-01-13T03:36:23.022Z,9.09
2023-01-13T03:37:23.279Z,9.04
2023-01-13T03:38:22.960Z,9.05
2023-01-13T03:39:22.950Z,9.05
2023-01-13T03:40:22.976Z,9.05
2023-01-13T03:41:22.926Z,9.04
2023-01-13T03:42:22.964Z,9.04
2023-01-13T03:43:22.923Z,9.06
2023-01-13T03:44:23.223Z,9.10
2023-01-13T03:45:22.888Z,9.10
2023-01-13T03:46:23.081Z,9.12
2023-01-13T03:47:22.859Z,9.13
2023-01-13T03:48:22.888Z,9.10
2023-01-13T03:49:22.859Z,9.06
2023-01-13T03:50:22.836Z,9.05
2023-01-13T03:51:23.118Z,9.02
2023-01-13T03:52:22.813Z,9.04
2023-01-13T03:53:22.804Z,9.09
2023-01-13T03:54:22.824Z,9.12
2023-01-13T03:55:22.798Z,9.09
2023-01-13T03:56:22.770Z,9.09
2023-01-13T03:57:22.752Z,9.06
2023-01-13T03:58:23.023Z,9.02
2023-01-13T03:59:22.753Z,8.99
2023-01-13T04:00:22.745Z,8.96
2023-01-13T04:01:22.962Z,8.94
2023-01-13T04:02:22.768Z,8.93
2023-01-13T04:03:22.720Z,8.96
2023-01-13T04:04:22.679Z,8.96
2023-01-13T04:05:22.946Z,8.96
2023-01-13T04:06:22.685Z,8.97
2023-01-13T04:07:22.658Z,8.96
2023-01-13T04:08:22.660Z,8.94
2023-01-13T04:09:22.628Z,8.94
2023-01-13T04:10:22.623Z,8.94
2023-01-13T04:11:22.622Z,8.90
2023-01-13T04:12:22.906Z,8.87
2023-01-13T04:13:22.591Z,8.88
2023-01-13T04:14:22.578Z,8.87
2023-01-13T04:15:22.567Z,8.87
2023-01-13T04:16:22.555Z,8.87
2023-01-13T04:17:22.549Z,8.86
2023-01-13T04:18:23.049Z,8.88
2023-01-13T04:19:22.811Z,8.88
2023-01-13T04:20:22.522Z,8.86
2023-01-13T04:21:22.539Z,8.86
2023-01-13T04:22:22.501Z,8.81
2023-01-13T04:23:22.490Z,8.81
2023-01-13T04:24:22.518Z,8.79
2023-01-13T04:25:22.468Z,8.81
2023-01-13T04:26:22.753Z,8.81
2023-01-13T04:27:22.449Z,8.83
2023-01-13T04:28:22.451Z,8.79
2023-01-13T04:29:22.429Z,8.79
2023-01-13T04:30:22.488Z,8.76
2023-01-13T04:31:22.475Z,8.75
2023-01-13T04:32:22.393Z,8.73
2023-01-13T04:33:22.666Z,8.75
2023-01-13T04:34:22.402Z,8.76
2023-01-13T04:35:22.369Z,8.79
2023-01-13T04:36:22.384Z,8.81
2023-01-13T04:37:22.335Z,8.79
2023-01-13T04:38:22.325Z,8.83
2023-01-13T04:39:22.315Z,8.84
2023-01-13T04:40:22.637Z,8.84
2023-01-13T04:41:22.295Z,8.83
2023-01-13T04:42:22.314Z,8.83
2023-01-13T04:43:22.280Z,8.84
2023-01-13T04:44:22.276Z,8.84
2023-01-13T04:45:22.264Z,8.81
2023-01-13T04:46:22.303Z,8.79
2023-01-13T04:47:22.536Z,8.79
2023-01-13T04:48:22.521Z,8.78
2023-01-13T04:49:22.219Z,8.78
2023-01-13T04:50:22.232Z,8.81
2023-01-13T04:51:22.184Z,8.81
2023-01-13T04:52:22.187Z,8.81
2023-01-13T04:53:22.170Z,8.79
2023-01-13T04:54:22.500Z,8.81
2023-01-13T04:55:22.163Z,8.83
2023-01-13T04:56:22.135Z,8.84
2023-01-13T04:57:22.126Z,8.87
2023-01-13T04:58:22.127Z,8.88
2023-01-13T04:59:22.122Z,8.88
2023-01-13T05:00:22.155Z,8.84
2023-01-13T05:01:22.573Z,8.86
2023-01-13T05:02:22.197Z,8.86
2023-01-13T05:03:22.071Z,8.88
2023-01-13T05:04:22.057Z,8.91
2023-01-13T05:05:22.051Z,8.93
2023-01-13T05:06:22.064Z,8.91
2023-01-13T05:07:22.036Z,8.91
2023-01-13T05:08:22.291Z,8.93
2023-01-13T05:09:21.997Z,8.96
2023-01-13T05:10:23.969Z,8.96
2023-01-13T05:11:21.983Z,9.01
2023-01-13T05:12:21.998Z,9.02
2023-01-13T05:13:21.952Z,9.01
2023-01-13T05:14:21.954Z,9.02
2023-01-13T05:15:22.224Z,9.02
2023-01-13T05:16:22.083Z,9.05
2023-01-13T05:17:21.922Z,9.06
2023-01-13T05:18:21.975Z,9.05
2023-01-13T05:19:21.909Z,9.06
2023-01-13T05:20:21.912Z,9.05
2023-01-13T05:21:21.893Z,9.04
2023-01-13T05:22:22.150Z,9.01
2023-01-13T05:23:21.862Z,9.04
2023-01-13T05:24:21.883Z,9.01
2023-01-13T05:25:21.828Z,8.97
2023-01-13T05:26:21.851Z,8.99
2023-01-13T05:27:21.842Z,9.04
2023-01-13T05:28:21.809Z,9.04
2023-01-13T05:29:22.069Z,9.05
2023-01-13T05:30:21.827Z,9.05
2023-01-13T05:31:21.863Z,9.04
2023-01-13T05:32:21.785Z,9.09
2023-01-13T05:33:21.742Z,9.09
2023-01-13T05:34:21.765Z,9.06
2023-01-13T05:35:21.732Z,9.09
2023-01-13T05:36:22.071Z,9.10
2023-01-13T05:37:21.714Z,9.09
2023-01-13T05:38:21.716Z,9.10
2023-01-13T05:39:21.710Z,9.10
2023-01-13T05:40:21.705Z,9.10
2023-01-13T05:41:21.684Z,9.10
2023-01-13T05:42:21.694Z,9.12
2023-01-13T05:43:22.083Z,9.12
2023-01-13T05:44:21.643Z,9.12
2023-01-13T05:45:21.662Z,9.10
2023-01-13T05:46:21.673Z,9.09
2023-01-13T05:47:21.599Z,9.06
2023-01-13T05:48:21.637Z,9.06
2023-01-13T05:49:21.611Z,9.06
2023-01-13T05:50:21.868Z,9.09
2023-01-13T05:51:21.569Z,9.06
2023-01-13T05:52:21.569Z,9.05
2023-01-13T05:53:21.598Z,9.06
2023-01-13T05:54:21.581Z,9.06
2023-01-13T05:55:21.524Z,9.06
2023-01-13T05:56:21.538Z,9.06
2023-01-13T05:57:21.516Z,9.10
2023-01-13T05:58:21.508Z,9.09
2023-01-13T05:59:21.483Z,9.09
2023-01-13T06:00:21.505Z,9.06
2023-01-13T06:01:21.813Z,9.04
2023-01-13T06:02:21.484Z,9.01
2023-01-13T06:03:21.484Z,8.99
2023-01-13T06:04:21.524Z,8.99
2023-01-13T06:05:21.419Z,8.97
2023-01-13T06:06:21.484Z,8.94
2023-01-13T06:07:21.411Z,8.93
2023-01-13T06:08:21.420Z,8.90
2023-01-13T06:09:21.393Z,8.88
2023-01-13T06:10:21.455Z,8.86
2023-01-13T06:11:21.390Z,8.87
2023-01-13T06:12:21.375Z,8.86
2023-01-13T06:13:21.377Z,8.87
2023-01-13T06:14:21.355Z,8.86
2023-01-13T06:15:21.330Z,8.83
2023-01-13T06:16:21.468Z,8.83
2023-01-13T06:17:21.304Z,8.83
2023-01-13T06:18:21.342Z,8.84
2023-01-13T06:19:21.566Z,8.81
2023-01-13T06:20:21.320Z,8.79
2023-01-13T06:21:21.289Z,8.76
2023-01-13T06:22:21.312Z,8.73
2023-01-13T06:23:21.259Z,8.75
2023-01-13T06:24:21.280Z,8.73
2023-01-13T06:25:21.246Z,8.73
2023-01-13T06:26:21.511Z,8.73
2023-01-13T06:27:21.236Z,8.73
2023-01-13T06:28:21.227Z,8.72
2023-01-13T06:29:21.186Z,8.75
2023-01-13T06:30:21.188Z,8.73
2023-01-13T06:31:21.321Z,8.72
2023-01-13T06:32:21.157Z,8.71
2023-01-13T06:33:21.453Z,8.75
2023-01-13T06:34:21.170Z,8.76
2023-01-13T06:35:21.119Z,8.79
2023-01-13T06:36:21.136Z,8.81
2023-01-13T06:37:21.111Z,8.83
2023-01-13T06:38:21.113Z,8.83
2023-01-13T06:39:21.067Z,8.81
2023-01-13T06:40:21.360Z,8.81
2023-01-13T06:41:21.057Z,8.83
2023-01-13T06:42:21.089Z,8.81
2023-01-13T06:43:21.062Z,8.84
2023-01-13T06:44:21.047Z,8.81
2023-01-13T06:45:21.029Z,8.81
2023-01-13T06:46:21.072Z,8.79
2023-01-13T06:47:21.256Z,8.78
2023-01-13T06:48:21.009Z,8.79
2023-01-13T06:49:21.777Z,8.79
2023-01-13T06:50:20.965Z,8.78
2023-01-13T06:51:20.972Z,8.79
2023-01-13T06:52:20.959Z,8.75
2023-01-13T06:53:20.952Z,8.73
2023-01-13T06:54:21.296Z,8.75
2023-01-13T06:55:20.965Z,8.75
2023-01-13T06:56:20.908Z,8.76
2023-01-13T06:57:20.956Z,8.76
2023-01-13T06:58:20.889Z,8.76
2023-01-13T06:59:20.872Z,8.76
2023-01-13T07:00:20.972Z,8.81
2023-01-13T07:01:21.381Z,8.79
2023-01-13T07:02:21.088Z,8.79
2023-01-13T07:03:20.868Z,8.79
2023-01-13T07:04:20.817Z,8.78
2023-01-13T07:05:20.854Z,8.76
2023-01-13T07:06:20.861Z,8.76
2023-01-13T07:07:20.802Z,8.75
2023-01-13T07:08:21.256Z,8.75
2023-01-13T07:09:20.765Z,8.76
2023-01-13T07:10:20.763Z,8.75
2023-01-13T07:11:20.748Z,8.78
2023-01-13T07:12:20.831Z,8.79
2023-01-13T07:13:20.720Z,8.79
2023-01-13T07:14:20.716Z,8.79
2023-01-13T07:15:20.706Z,8.78
2023-01-13T07:16:20.737Z,8.73
2023-01-13T07:17:20.696Z,8.76
2023-01-13T07:18:20.722Z,8.75
2023-01-13T07:19:22.174Z,8.75
2023-01-13T07:20:20.692Z,8.72
2023-01-13T07:21:20.940Z,8.71
2023-01-13T07:22:20.643Z,8.69
2023-01-13T07:23:20.629Z,8.68
2023-01-13T07:24:20.697Z,8.66
2023-01-13T07:25:20.646Z,8.65
2023-01-13T07:26:20.641Z,8.66
2023-01-13T07:27:20.588Z,8.63
2023-01-13T07:28:20.636Z,8.63
2023-01-13T07:29:20.586Z,8.62
2023-01-13T07:30:20.581Z,8.60
2023-01-13T07:31:20.605Z,8.60
2023-01-13T07:32:20.524Z,8.57
2023-01-13T07:33:20.799Z,8.55
2023-01-13T07:34:20.490Z,8.54
2023-01-13T07:35:20.491Z,8.54
2023-01-13T07:36:20.518Z,8.54
2023-01-13T07:37:20.535Z,8.55
2023-01-13T07:38:20.544Z,8.57
2023-01-13T07:39:20.778Z,8.58
2023-01-13T07:40:20.432Z,8.60
2023-01-13T07:41:20.443Z,8.60
2023-01-13T07:42:20.492Z,8.62
2023-01-13T07:43:20.485Z,8.62
2023-01-13T07:44:20.430Z,8.63
2023-01-13T07:45:20.407Z,8.63
2023-01-13T07:46:20.698Z,8.68
2023-01-13T07:47:20.441Z,8.68
2023-01-13T07:48:20.465Z,8.69
2023-01-13T07:49:20.422Z,8.69
2023-01-13T07:50:20.394Z,8.69
2023-01-13T07:51:20.371Z,8.71
2023-01-13T07:52:20.371Z,8.71
2023-01-13T07:53:20.631Z,8.71
2023-01-13T07:54:25.503Z,8.73
2023-01-13T07:55:20.330Z,8.73
2023-01-13T07:56:20.376Z,8.73
2023-01-13T07:57:20.292Z,8.73
2023-01-13T07:58:20.250Z,8.73
2023-01-13T07:59:20.288Z,8.72
2023-01-13T08:00:20.602Z,8.72
2023-01-13T08:01:20.444Z,8.72
2023-01-13T08:02:20.434Z,8.73
2023-01-13T08:03:20.359Z,8.72
2023-01-13T08:04:20.242Z,8.71
2023-01-13T08:05:20.241Z,8.71
2023-01-13T08:06:20.312Z,8.71
2023-01-13T08:07:20.674Z,8.72
2023-01-13T08:08:20.160Z,8.71
2023-01-13T08:09:20.192Z,8.71
2023-01-13T08:10:20.147Z,8.73
2023-01-13T08:11:23.296Z,8.76
2023-01-13T08:12:20.192Z,8.78
2023-01-13T08:13:20.365Z,8.79
2023-01-13T08:14:20.476Z,8.78
2023-01-13T08:15:20.143Z,8.78
2023-01-13T08:16:20.194Z,8.78
2023-01-13T08:17:20.684Z,8.78
2023-01-13T08:18:20.118Z,8.78
2023-01-13T08:19:20.098Z,8.81
2023-01-13T08:20:20.066Z,8.81
2023-01-13T08:21:20.351Z,8.79
2023-01-13T08:22:20.104Z,8.79
2023-01-13T08:23:20.023Z,8.79
2023-01-13T08:24:20.083Z,8.79
2023-01-13T08:25:20.110Z,8.79
2023-01-13T08:26:19.991Z,8.78
2023-01-13T08:27:20.004Z,8.78
2023-01-13T08:28:20.002Z,8.78
2023-01-13T08:29:20.050Z,8.83
2023-01-13T08:30:19.983Z,8.83
2023-01-13T08:31:20.302Z,8.83
2023-01-13T08:32:19.997Z,8.83
2023-01-13T08:33:19.905Z,8.84
2023-01-13T08:34:20.217Z,8.84
2023-01-13T08:35:19.907Z,8.84
2023-01-13T08:36:20.031Z,8.84
2023-01-13T08:37:19.920Z,8.84
2023-01-13T08:38:19.939Z,8.84
2023-01-13T08:39:19.936Z,8.84
2023-01-13T08:40:19.907Z,8.86
2023-01-13T08:41:20.186Z,8.84
2023-01-13T08:42:20.006Z,8.86
2023-01-13T08:43:19.815Z,8.84
2023-01-13T08:44:19.900Z,8.81
2023-01-13T08:45:19.861Z,8.81
2023-01-13T08:46:19.855Z,8.84
2023-01-13T08:47:19.791Z,8.84
2023-01-13T08:48:20.171Z,8.86
2023-01-13T08:49:19.762Z,8.86
2023-01-13T08:50:19.879Z,8.87
2023-01-13T08:51:19.722Z,8.86
2023-01-13T08:52:19.790Z,8.87
2023-01-13T08:53:19.769Z,8.86
2023-01-13T08:54:19.902Z,8.87
2023-01-13T08:55:19.776Z,8.88
2023-01-13T08:56:19.731Z,8.88
2023-01-13T08:57:19.691Z,8.87
2023-01-13T08:58:19.790Z,8.88
2023-01-13T08:59:19.740Z,8.91
2023-01-13T09:00:19.809Z,8.91
2023-01-13T09:01:21.138Z,8.91
2023-01-13T09:02:19.856Z,8.93
2023-01-13T09:03:19.691Z,8.91
2023-01-13T09:04:19.780Z,8.93
2023-01-13T09:05:19.605Z,8.94
2023-01-13T09:06:19.688Z,8.96
2023-01-13T09:07:19.583Z,8.97
2023-01-13T09:08:19.689Z,9.01
2023-01-13T09:09:19.617Z,9.04
2023-01-13T09:10:19.623Z,9.06
2023-01-13T09:11:19.538Z,9.05
2023-01-13T09:12:19.632Z,9.02
2023-01-13T09:13:19.596Z,8.99
2023-01-13T09:14:19.826Z,8.97
2023-01-13T09:15:19.527Z,8.97
2023-01-13T09:16:19.517Z,8.99
2023-01-13T09:17:19.536Z,8.97
2023-01-13T09:18:19.554Z,8.99
2023-01-13T09:19:19.525Z,8.99
2023-01-13T09:20:19.441Z,8.99
2023-01-13T09:21:19.527Z,9.01
2023-01-13T09:22:19.478Z,8.97
2023-01-13T09:23:19.394Z,8.97
2023-01-13T09:24:19.554Z,8.94
2023-01-13T09:25:19.413Z,8.94
2023-01-13T09:26:19.647Z,8.93
2023-01-13T09:27:19.364Z,8.94
2023-01-13T09:28:19.446Z,8.94
2023-01-13T09:29:19.432Z,8.97
2023-01-13T09:30:19.463Z,8.99
2023-01-13T09:31:19.412Z,9.02
2023-01-13T09:32:19.327Z,9.04
2023-01-13T09:33:19.328Z,9.05
2023-01-13T09:34:19.302Z,9.04
2023-01-13T09:35:19.319Z,9.04
2023-01-13T09:36:19.414Z,9.05
2023-01-13T09:37:19.310Z,9.05
2023-01-13T09:38:19.633Z,9.06
2023-01-13T09:39:19.234Z,9.05
2023-01-13T09:40:19.229Z,9.06
2023-01-13T09:41:19.257Z,9.05
2023-01-13T09:42:19.366Z,9.09
2023-01-13T09:43:19.306Z,9.10
2023-01-13T09:44:19.247Z,9.13
2023-01-13T09:45:19.558Z,9.15
2023-01-13T09:46:19.207Z,9.16
2023-01-13T09:47:19.161Z,9.18
2023-01-13T09:48:19.232Z,9.31
2023-01-13T09:49:19.132Z,9.32
2023-01-13T09:50:19.138Z,9.34
2023-01-13T09:51:19.219Z,9.34
2023-01-13T09:52:19.417Z,9.42
2023-01-13T09:53:19.164Z,9.42
2023-01-13T09:54:19.163Z,9.52
2023-01-13T09:55:19.153Z,9.46
2023-01-13T09:56:19.095Z,9.48
2023-01-13T09:57:19.162Z,9.67
2023-01-13T09:58:19.117Z,9.75
2023-01-13T09:59:19.354Z,9.64
2023-01-13T10:00:19.122Z,9.56
2023-01-13T10:01:19.038Z,9.49
2023-01-13T10:02:19.249Z,9.43
2023-01-13T10:03:19.097Z,9.40
2023-01-13T10:04:19.134Z,9.38
2023-01-13T10:05:19.065Z,9.35
2023-01-13T10:06:19.367Z,9.34
2023-01-13T10:07:19.298Z,9.34
2023-01-13T10:08:18.996Z,9.35
2023-01-13T10:09:19.045Z,9.32
2023-01-13T10:10:18.986Z,9.34
2023-01-13T10:11:19.052Z,9.38
2023-01-13T10:12:19.091Z,9.39
2023-01-13T10:13:19.193Z,9.40
2023-01-13T10:14:18.857Z,9.45
2023-01-13T10:15:18.918Z,9.49
2023-01-13T10:16:19.003Z,9.52
2023-01-13T10:17:18.853Z,9.53
2023-01-13T10:18:18.967Z,9.56
2023-01-13T10:19:18.827Z,9.57
2023-01-13T10:20:19.193Z,9.53
2023-01-13T10:21:18.929Z,9.53
2023-01-13T10:22:18.856Z,9.56
2023-01-13T10:23:18.757Z,9.50
2023-01-13T10:24:18.850Z,9.48
2023-01-13T10:25:18.864Z,9.45
2023-01-13T10:26:18.877Z,9.43
2023-01-13T10:27:19.105Z,9.42
2023-01-13T10:28:19.445Z,9.40
2023-01-13T10:29:18.750Z,9.43
2023-01-13T10:30:18.929Z,9.49
2023-01-13T10:31:18.851Z,9.52
2023-01-13T10:32:18.646Z,9.64
2023-01-13T10:33:18.697Z,9.60
2023-01-13T10:34:19.007Z,9.61
2023-01-13T10:35:18.663Z,9.63
2023-01-13T10:36:18.710Z,9.64
2023-01-13T10:37:18.698Z,9.63
2023-01-13T10:38:18.827Z,9.71
2023-01-13T10:39:18.683Z,9.79
2023-01-13T10:40:18.709Z,9.76
2023-01-13T10:41:18.994Z,9.70
2023-01-13T10:42:18.639Z,9.68
2023-01-13T10:43:18.637Z,9.66
2023-01-13T10:44:18.623Z,9.64
2023-01-13T10:45:18.548Z,9.68
2023-01-13T10:46:18.642Z,9.71
2023-01-13T10:47:18.536Z,9.76
2023-01-13T10:48:18.968Z,9.85
2023-01-13T10:49:18.507Z,9.86
2023-01-13T10:50:18.615Z,9.93
2023-01-13T10:51:18.519Z,10.22
2023-01-13T10:52:18.479Z,10.18
2023-01-13T10:53:18.520Z,10.14
2023-01-13T10:54:18.499Z,10.00
2023-01-13T10:55:18.715Z,9.91
2023-01-13T10:56:18.444Z,9.85
2023-01-13T10:57:18.496Z,9.85
2023-01-13T10:58:18.559Z,9.88
2023-01-13T10:59:18.605Z,9.86
2023-01-13T11:00:18.606Z,9.83
2023-01-13T11:01:18.616Z,9.79
2023-01-13T11:02:26.952Z,9.76
2023-01-13T11:03:18.463Z,9.75
2023-01-13T11:04:18.335Z,9.73
2023-01-13T11:05:18.374Z,9.73
2023-01-13T11:06:18.511Z,9.73
2023-01-13T11:07:18.363Z,9.76
2023-01-13T11:08:18.376Z,9.85
2023-01-13T11:09:18.580Z,9.91
2023-01-13T11:10:18.364Z,9.96
2023-01-13T11:11:18.260Z,10.01
2023-01-13T11:12:18.589Z,10.00
2023-01-13T11:13:18.419Z,9.93
2023-01-13T11:14:18.242Z,9.88
2023-01-13T11:15:18.223Z,9.83
2023-01-13T11:16:18.575Z,9.79
2023-01-13T11:17:18.219Z,9.76
2023-01-13T11:18:18.380Z,9.70
2023-01-13T11:19:18.237Z,9.68
2023-01-13T11:20:18.213Z,9.61
2023-01-13T11:21:18.167Z,9.56
2023-01-13T11:22:18.231Z,9.49
2023-01-13T11:23:18.416Z,9.40
2023-01-13T11:24:18.237Z,9.35
2023-01-13T11:25:18.092Z,9.28
2023-01-13T11:26:18.136Z,9.24
2023-01-13T11:27:18.088Z,9.18
2023-01-13T11:28:18.079Z,9.16
2023-01-13T11:29:18.109Z,9.16
2023-01-13T11:30:18.529Z,9.16
2023-01-13T11:31:18.187Z,9.18
2023-01-13T11:32:18.092Z,9.18
2023-01-13T11:33:18.048Z,9.18
2023-01-13T11:34:18.140Z,9.20
2023-01-13T11:35:18.077Z,9.21
2023-01-13T11:36:20.403Z,9.21
2023-01-13T11:37:18.299Z,9.24
2023-01-13T11:38:18.053Z,9.23
2023-01-13T11:39:17.970Z,9.20
2023-01-13T11:40:17.957Z,9.20
2023-01-13T11:41:17.988Z,9.18
2023-01-13T11:42:18.021Z,9.20
2023-01-13T11:43:17.967Z,9.18
2023-01-13T11:44:18.293Z,9.18
2023-01-13T11:45:17.978Z,9.16
2023-01-13T11:46:17.969Z,9.16
2023-01-13T11:47:17.940Z,9.16
2023-01-13T11:48:18.052Z,9.18
2023-01-13T11:49:17.940Z,9.20
2023-01-13T11:50:17.912Z,9.18
2023-01-13T11:51:18.165Z,9.20
2023-01-13T11:52:17.915Z,9.16
2023-01-13T11:53:17.922Z,9.15
2023-01-13T11:54:17.983Z,9.12
2023-01-13T11:55:17.781Z,9.05
2023-01-13T11:56:17.888Z,9.01
2023-01-13T11:57:17.861Z,9.01
2023-01-13T11:58:18.054Z,8.99
2023-01-13T11:59:17.859Z,8.97
2023-01-13T12:00:17.859Z,8.97
2023-01-13T12:01:17.834Z,8.99
2023-01-13T12:02:17.860Z,8.97
2023-01-13T12:03:17.832Z,8.99
2023-01-13T12:04:17.741Z,8.96
2023-01-13T12:05:18.022Z,8.93
2023-01-13T12:06:17.821Z,8.93
2023-01-13T12:07:17.773Z,8.91
2023-01-13T12:08:17.676Z,8.90
2023-01-13T12:09:17.725Z,8.88
2023-01-13T12:10:17.673Z,8.87
2023-01-13T12:11:17.725Z,8.88
2023-01-13T12:12:18.067Z,8.91
2023-01-13T12:13:17.642Z,8.90
2023-01-13T12:14:17.630Z,8.93
2023-01-13T12:15:17.587Z,8.96
2023-01-13T12:16:17.632Z,9.05
2023-01-13T12:17:17.667Z,9.16
2023-01-13T12:18:17.831Z,9.39
2023-01-13T12:19:17.879Z,9.39
2023-01-13T12:20:17.569Z,9.35
2023-01-13T12:21:17.516Z,9.28
2023-01-13T12:22:17.550Z,9.24
2023-01-13T12:23:17.528Z,9.16
2023-01-13T12:24:17.573Z,9.15
2023-01-13T12:25:17.530Z,9.12
2023-01-13T12:26:17.792Z,9.13
2023-01-13T12:27:17.514Z,9.12
2023-01-13T12:28:17.544Z,9.10
2023-01-13T12:29:17.498Z,9.05
2023-01-13T12:30:17.698Z,9.02
2023-01-13T12:31:17.431Z,9.01
2023-01-13T12:32:17.487Z,9.01
2023-01-13T12:33:18.803Z,9.02
2023-01-13T12:34:17.368Z,8.99
2023-01-13T12:35:17.427Z,8.99
2023-01-13T12:36:17.423Z,8.97
2023-01-13T12:37:17.375Z,8.97
2023-01-13T12:38:17.441Z,8.96
2023-01-13T12:39:17.395Z,8.94
2023-01-13T12:40:17.692Z,8.96
2023-01-13T12:41:17.376Z,8.96
2023-01-13T12:42:17.352Z,8.97
2023-01-13T12:43:17.299Z,8.97
2023-01-13T12:44:17.358Z,8.96
2023-01-13T12:45:18.560Z,8.96
2023-01-13T12:46:17.365Z,8.99
2023-01-13T12:47:17.609Z,9.01
2023-01-13T12:48:17.473Z,9.02
2023-01-13T12:49:17.323Z,9.02
2023-01-13T12:50:17.277Z,9.04
2023-01-13T12:51:18.286Z,9.02
2023-01-13T12:52:17.263Z,9.01
2023-01-13T12:53:17.242Z,8.99
2023-01-13T12:54:17.503Z,8.97
2023-01-13T12:55:17.168Z,8.96
2023-01-13T12:56:17.203Z,8.96
2023-01-13T12:57:17.162Z,8.96
2023-01-13T12:58:17.232Z,8.93
2023-01-13T12:59:17.093Z,8.93
2023-01-13T13:00:17.163Z,8.90
2023-01-13T13:01:17.311Z,8.90
2023-01-13T13:02:17.201Z,8.90
2023-01-13T13:03:19.344Z,8.90
2023-01-13T13:04:17.093Z,8.88
2023-01-13T13:05:17.103Z,8.91
2023-01-13T13:06:18.107Z,8.93
2023-01-13T13:07:17.364Z,8.91
2023-01-13T13:08:17.039Z,8.91
2023-01-13T13:09:17.049Z,8.90
2023-01-13T13:10:17.027Z,8.91
2023-01-13T13:11:17.043Z,8.93
2023-01-13T13:12:17.172Z,8.93
2023-01-13T13:13:17.027Z,8.96
2023-01-13T13:14:16.996Z,8.97
2023-01-13T13:15:17.113Z,8.97